Terminal Aerodrome Forecast
Issued by NWS Portland, ME

Home | Current Version | Previous Version | Text Only | Print | Product List | Glossary On
Versions: 1 2 3 4 5 6 7 8 9 10 11 12 13 14 15 16 17 18 19 20 21 22
000
FTUS41 KGYX 242320
TAFPWM
TAF
KPWM 242320Z 2500/2524 20007KT 2SM -RA BR BKN009 OVC040
     FM250200 22006KT 5SM -SHRA BKN015 OVC040
     FM250600 VRB04KT P6SM SCT025 OVC050
     FM251200 01006KT P6SM SCT025 BKN080=

USA.gov is the U.S. government's official web portal to all federal, state and local government web resources and services.